sensor_id;sensor_type;location;lat;lon;timestamp;temperature;humidity
75964;DHT22;65820;44.726;37.764;2023-01-30T00:00:36;20.18;53.92
75964;DHT22;65820;44.726;37.764;2023-01-30T00:01:38;20.18;53.97
75964;DHT22;65820;44.726;37.764;2023-01-30T00:02:39;20.18;53.68
75964;DHT22;65820;44.726;37.764;2023-01-30T00:03:40;20.18;53.87
75964;DHT22;65820;44.726;37.764;2023-01-30T00:04:42;20.19;53.72
75964;DHT22;65820;44.726;37.764;2023-01-30T00:05:43;20.18;53.96
75964;DHT22;65820;44.726;37.764;2023-01-30T00:06:44;20.19;53.83
75964;DHT22;65820;44.726;37.764;2023-01-30T00:07:46;20.18;53.81
75964;DHT22;65820;44.726;37.764;2023-01-30T00:08:47;20.18;54.16
75964;DHT22;65820;44.726;37.764;2023-01-30T00:09:49;20.19;53.90
75964;DHT22;65820;44.726;37.764;2023-01-30T00:10:50;20.18;53.78
75964;DHT22;65820;44.726;37.764;2023-01-30T00:11:51;20.18;53.81
75964;DHT22;65820;44.726;37.764;2023-01-30T00:12:53;20.18;53.72
75964;DHT22;65820;44.726;37.764;2023-01-30T00:13:54;20.17;53.74
75964;DHT22;65820;44.726;37.764;2023-01-30T00:14:55;20.18;53.83
75964;DHT22;65820;44.726;37.764;2023-01-30T00:15:57;20.18;53.68
75964;DHT22;65820;44.726;37.764;2023-01-30T00:16:58;20.17;53.62
75964;DHT22;65820;44.726;37.764;2023-01-30T00:17:59;20.18;53.65
75964;DHT22;65820;44.726;37.764;2023-01-30T00:19:00;20.17;53.59
75964;DHT22;65820;44.726;37.764;2023-01-30T00:20:02;20.18;53.76
75964;DHT22;65820;44.726;37.764;2023-01-30T00:21:05;20.18;53.71
75964;DHT22;65820;44.726;37.764;2023-01-30T00:22:07;20.19;53.56
75964;DHT22;65820;44.726;37.764;2023-01-30T00:23:08;20.17;53.76
75964;DHT22;65820;44.726;37.764;2023-01-30T00:24:09;20.17;53.74
75964;DHT22;65820;44.726;37.764;2023-01-30T00:25:11;20.19;53.85
75964;DHT22;65820;44.726;37.764;2023-01-30T00:26:12;20.17;53.68
75964;DHT22;65820;44.726;37.764;2023-01-30T00:27:14;20.18;53.63
75964;DHT22;65820;44.726;37.764;2023-01-30T00:28:15;20.18;53.68
75964;DHT22;65820;44.726;37.764;2023-01-30T00:29:17;20.19;53.65
75964;DHT22;65820;44.726;37.764;2023-01-30T00:30:18;20.20;53.64
75964;DHT22;65820;44.726;37.764;2023-01-30T00:31:20;20.20;53.55
75964;DHT22;65820;44.726;37.764;2023-01-30T00:32:21;20.20;53.84
75964;DHT22;65820;44.726;37.764;2023-01-30T00:33:26;20.21;53.65
75964;DHT22;65820;44.726;37.764;2023-01-30T00:34:27;20.20;53.84
75964;DHT22;65820;44.726;37.764;2023-01-30T00:35:29;20.22;53.54
75964;DHT22;65820;44.726;37.764;2023-01-30T00:36:30;20.21;53.44
75964;DHT22;65820;44.726;37.764;2023-01-30T00:37:33;20.22;53.48
75964;DHT22;65820;44.726;37.764;2023-01-30T00:38:34;20.21;53.65
75964;DHT22;65820;44.726;37.764;2023-01-30T00:39:35;20.21;53.67
75964;DHT22;65820;44.726;37.764;2023-01-30T00:40:37;20.22;53.49
75964;DHT22;65820;44.726;37.764;2023-01-30T00:41:38;20.22;53.64
75964;DHT22;65820;44.726;37.764;2023-01-30T00:42:58;20.24;53.54
75964;DHT22;65820;44.726;37.764;2023-01-30T00:44:18;20.25;53.73
75964;DHT22;65820;44.726;37.764;2023-01-30T00:45:40;20.24;53.60
75964;DHT22;65820;44.726;37.764;2023-01-30T00:47:02;20.24;53.55
75964;DHT22;65820;44.726;37.764;2023-01-30T00:48:06;20.22;53.49
75964;DHT22;65820;44.726;37.764;2023-01-30T00:49:07;20.24;53.37
75964;DHT22;65820;44.726;37.764;2023-01-30T00:50:09;20.24;53.44
75964;DHT22;65820;44.726;37.764;2023-01-30T00:51:10;20.24;53.49
75964;DHT22;65820;44.726;37.764;2023-01-30T00:52:12;20.24;53.63
75964;DHT22;65820;44.726;37.764;2023-01-30T00:53:15;20.22;53.40
75964;DHT22;65820;44.726;37.764;2023-01-30T00:54:16;20.22;53.48
75964;DHT22;65820;44.726;37.764;2023-01-30T00:55:18;20.22;53.32
75964;DHT22;65820;44.726;37.764;2023-01-30T00:56:19;20.24;53.44
75964;DHT22;65820;44.726;37.764;2023-01-30T00:57:20;20.25;53.36
75964;DHT22;65820;44.726;37.764;2023-01-30T00:58:23;20.25;53.20
75964;DHT22;65820;44.726;37.764;2023-01-30T00:59:25;20.24;53.36
75964;DHT22;65820;44.726;37.764;2023-01-30T01:00:27;20.22;53.33
75964;DHT22;65820;44.726;37.764;2023-01-30T01:01:28;20.24;53.38
75964;DHT22;65820;44.726;37.764;2023-01-30T01:02:30;20.24;53.30
75964;DHT22;65820;44.726;37.764;2023-01-30T01:03:32;20.25;53.27
75964;DHT22;65820;44.726;37.764;2023-01-30T01:04:34;20.24;53.30
75964;DHT22;65820;44.726;37.764;2023-01-30T01:05:43;20.25;53.27
75964;DHT22;65820;44.726;37.764;2023-01-30T01:06:48;20.25;53.37
75964;DHT22;65820;44.726;37.764;2023-01-30T01:07:49;20.24;53.44
75964;DHT22;65820;44.726;37.764;2023-01-30T01:08:50;20.25;53.25
75964;DHT22;65820;44.726;37.764;2023-01-30T01:09:52;20.25;53.23
75964;DHT22;65820;44.726;37.764;2023-01-30T01:10:53;20.25;53.05
75964;DHT22;65820;44.726;37.764;2023-01-30T01:11:54;20.25;53.26
75964;DHT22;65820;44.726;37.764;2023-01-30T01:12:56;20.25;53.12
75964;DHT22;65820;44.726;37.764;2023-01-30T01:14:53;20.25;53.35
75964;DHT22;65820;44.726;37.764;2023-01-30T01:15:55;20.24;53.17
75964;DHT22;65820;44.726;37.764;2023-01-30T01:16:57;20.25;53.30
75964;DHT22;65820;44.726;37.764;2023-01-30T01:17:58;20.24;53.20
75964;DHT22;65820;44.726;37.764;2023-01-30T01:19:01;20.25;53.19
75964;DHT22;65820;44.726;37.764;2023-01-30T01:20:03;20.24;53.11
75964;DHT22;65820;44.726;37.764;2023-01-30T01:21:07;20.25;53.20
75964;DHT22;65820;44.726;37.764;2023-01-30T01:22:08;20.24;53.19
75964;DHT22;65820;44.726;37.764;2023-01-30T01:23:09;20.22;53.21
75964;DHT22;65820;44.726;37.764;2023-01-30T01:24:13;20.25;53.22
75964;DHT22;65820;44.726;37.764;2023-01-30T01:25:15;20.25;53.17
75964;DHT22;65820;44.726;37.764;2023-01-30T01:26:16;20.25;53.23
75964;DHT22;65820;44.726;37.764;2023-01-30T01:27:18;20.24;53.20
75964;DHT22;65820;44.726;37.764;2023-01-30T01:28:19;20.21;53.23
75964;DHT22;65820;44.726;37.764;2023-01-30T01:29:22;20.24;52.99
75964;DHT22;65820;44.726;37.764;2023-01-30T01:30:24;20.24;53.17
75964;DHT22;65820;44.726;37.764;2023-01-30T01:31:25;20.24;52.96
75964;DHT22;65820;44.726;37.764;2023-01-30T01:32:29;20.25;53.19
75964;DHT22;65820;44.726;37.764;2023-01-30T01:33:30;20.25;53.09
75964;DHT22;65820;44.726;37.764;2023-01-30T01:34:32;20.25;53.10
75964;DHT22;65820;44.726;37.764;2023-01-30T01:35:33;20.25;52.93
75964;DHT22;65820;44.726;37.764;2023-01-30T01:36:34;20.25;53.14
75964;DHT22;65820;44.726;37.764;2023-01-30T01:37:36;20.25;52.94
75964;DHT22;65820;44.726;37.764;2023-01-30T01:38:37;20.24;52.85
75964;DHT22;65820;44.726;37.764;2023-01-30T01:39:39;20.24;52.88
75964;DHT22;65820;44.726;37.764;2023-01-30T01:41:01;20.25;53.02
75964;DHT22;65820;44.726;37.764;2023-01-30T01:42:02;20.25;53.02
75964;DHT22;65820;44.726;37.764;2023-01-30T01:43:17;20.24;53.05
75964;DHT22;65820;44.726;37.764;2023-01-30T01:44:19;20.24;52.91
75964;DHT22;65820;44.726;37.764;2023-01-30T01:45:22;20.25;52.97
75964;DHT22;65820;44.726;37.764;2023-01-30T01:46:29;20.24;52.95
75964;DHT22;65820;44.726;37.764;2023-01-30T01:47:33;20.24;52.93
75964;DHT22;65820;44.726;37.764;2023-01-30T01:48:43;20.25;52.98
75964;DHT22;65820;44.726;37.764;2023-01-30T01:49:47;20.25;52.93
75964;DHT22;65820;44.726;37.764;2023-01-30T01:50:50;20.25;53.10
75964;DHT22;65820;44.726;37.764;2023-01-30T01:52:00;20.22;52.87
75964;DHT22;65820;44.726;37.764;2023-01-30T01:53:04;20.25;53.01
75964;DHT22;65820;44.726;37.764;2023-01-30T01:54:12;20.24;52.98
75964;DHT22;65820;44.726;37.764;2023-01-30T01:55:15;20.22;52.91
75964;DHT22;65820;44.726;37.764;2023-01-30T01:56:18;20.24;52.87
75964;DHT22;65820;44.726;37.764;2023-01-30T01:57:30;20.25;52.84
75964;DHT22;65820;44.726;37.764;2023-01-30T01:58:54;20.24;52.82
75964;DHT22;65820;44.726;37.764;2023-01-30T02:00:08;20.24;52.88
75964;DHT22;65820;44.726;37.764;2023-01-30T02:01:13;20.24;52.62
75964;DHT22;65820;44.726;37.764;2023-01-30T02:02:16;20.24;52.83
75964;DHT22;65820;44.726;37.764;2023-01-30T02:03:21;20.24;52.84
75964;DHT22;65820;44.726;37.764;2023-01-30T02:04:25;20.22;52.82
75964;DHT22;65820;44.726;37.764;2023-01-30T02:05:50;20.24;52.69
75964;DHT22;65820;44.726;37.764;2023-01-30T02:06:53;20.24;52.83
75964;DHT22;65820;44.726;37.764;2023-01-30T02:07:58;20.22;52.69
75964;DHT22;65820;44.726;37.764;2023-01-30T02:09:07;20.22;52.78
75964;DHT22;65820;44.726;37.764;2023-01-30T02:10:14;20.22;52.80
75964;DHT22;65820;44.726;37.764;2023-01-30T02:12:25;20.22;52.78
75964;DHT22;65820;44.726;37.764;2023-01-30T02:13:27;20.22;52.84
75964;DHT22;65820;44.726;37.764;2023-01-30T02:14:31;20.22;52.75
75964;DHT22;65820;44.726;37.764;2023-01-30T02:15:33;20.21;52.78
75964;DHT22;65820;44.726;37.764;2023-01-30T02:16:41;20.24;52.70
75964;DHT22;65820;44.726;37.764;2023-01-30T02:17:43;20.22;52.67
75964;DHT22;65820;44.726;37.764;2023-01-30T02:18:45;20.22;52.71
75964;DHT22;65820;44.726;37.764;2023-01-30T02:24:05;20.21;52.81
75964;DHT22;65820;44.726;37.764;2023-01-30T02:27:42;20.22;52.65
75964;DHT22;65820;44.726;37.764;2023-01-30T02:30:37;20.20;52.75
75964;DHT22;65820;44.726;37.764;2023-01-30T02:31:47;20.19;52.72
75964;DHT22;65820;44.726;37.764;2023-01-30T02:33:03;20.20;52.61
75964;DHT22;65820;44.726;37.764;2023-01-30T02:35:27;20.19;52.56
75964;DHT22;65820;44.726;37.764;2023-01-30T02:38:18;20.19;52.65
75964;DHT22;65820;44.726;37.764;2023-01-30T02:40:46;20.19;52.53
75964;DHT22;65820;44.726;37.764;2023-01-30T02:42:10;20.19;52.62
75964;DHT22;65820;44.726;37.764;2023-01-30T02:44:52;20.18;52.73
75964;DHT22;65820;44.726;37.764;2023-01-30T02:48:03;20.18;52.61
75964;DHT22;65820;44.726;37.764;2023-01-30T02:49:16;20.18;52.58
75964;DHT22;65820;44.726;37.764;2023-01-30T02:50:28;20.17;52.62
75964;DHT22;65820;44.726;37.764;2023-01-30T02:51:34;20.17;52.42
75964;DHT22;65820;44.726;37.764;2023-01-30T02:52:36;20.17;52.46
75964;DHT22;65820;44.726;37.764;2023-01-30T02:53:38;20.17;52.49
75964;DHT22;65820;44.726;37.764;2023-01-30T02:54:40;20.17;52.41
75964;DHT22;65820;44.726;37.764;2023-01-30T02:55:41;20.17;52.44
75964;DHT22;65820;44.726;37.764;2023-01-30T02:56:48;20.18;52.47
75964;DHT22;65820;44.726;37.764;2023-01-30T02:57:50;20.18;52.38
75964;DHT22;65820;44.726;37.764;2023-01-30T02:58:58;20.17;52.40
75964;DHT22;65820;44.726;37.764;2023-01-30T03:00:04;20.18;52.41
75964;DHT22;65820;44.726;37.764;2023-01-30T03:06:23;20.18;52.39
75964;DHT22;65820;44.726;37.764;2023-01-30T03:11:02;20.18;52.37
75964;DHT22;65820;44.726;37.764;2023-01-30T03:12:06;20.19;52.46
75964;DHT22;65820;44.726;37.764;2023-01-30T03:13:19;20.19;52.46
75964;DHT22;65820;44.726;37.764;2023-01-30T03:14:33;20.18;52.36
75964;DHT22;65820;44.726;37.764;2023-01-30T03:15:41;20.18;52.53
75964;DHT22;65820;44.726;37.764;2023-01-30T03:16:45;20.18;52.33
75964;DHT22;65820;44.726;37.764;2023-01-30T03:17:48;20.17;52.38
75964;DHT22;65820;44.726;37.764;2023-01-30T03:18:51;20.19;52.30
75964;DHT22;65820;44.726;37.764;2023-01-30T03:19:53;20.18;52.27
75964;DHT22;65820;44.726;37.764;2023-01-30T03:20:55;20.18;52.31
75964;DHT22;65820;44.726;37.764;2023-01-30T03:22:03;20.19;52.42
75964;DHT22;65820;44.726;37.764;2023-01-30T03:23:06;20.18;52.27
75964;DHT22;65820;44.726;37.764;2023-01-30T03:24:07;20.19;52.42
75964;DHT22;65820;44.726;37.764;2023-01-30T03:25:16;20.19;52.36
75964;DHT22;65820;44.726;37.764;2023-01-30T03:26:22;20.18;52.17
75964;DHT22;65820;44.726;37.764;2023-01-30T03:27:27;20.19;52.40
75964;DHT22;65820;44.726;37.764;2023-01-30T03:28:28;20.18;52.24
75964;DHT22;65820;44.726;37.764;2023-01-30T03:29:30;20.18;52.37
75964;DHT22;65820;44.726;37.764;2023-01-30T03:30:32;20.19;52.36
75964;DHT22;65820;44.726;37.764;2023-01-30T03:31:42;20.18;52.55
75964;DHT22;65820;44.726;37.764;2023-01-30T03:32:43;20.19;52.65
75964;DHT22;65820;44.726;37.764;2023-01-30T03:33:45;20.19;52.84
75964;DHT22;65820;44.726;37.764;2023-01-30T03:34:47;20.18;52.46
75964;DHT22;65820;44.726;37.764;2023-01-30T03:35:50;20.18;52.29
75964;DHT22;65820;44.726;37.764;2023-01-30T03:36:52;20.18;52.20
75964;DHT22;65820;44.726;37.764;2023-01-30T03:37:54;20.18;52.46
75964;DHT22;65820;44.726;37.764;2023-01-30T03:38:55;20.17;52.20
75964;DHT22;65820;44.726;37.764;2023-01-30T03:39:58;20.18;52.07
75964;DHT22;65820;44.726;37.764;2023-01-30T03:41:01;20.16;52.20
75964;DHT22;65820;44.726;37.764;2023-01-30T03:42:03;20.17;52.11
75964;DHT22;65820;44.726;37.764;2023-01-30T03:43:04;20.18;52.16
75964;DHT22;65820;44.726;37.764;2023-01-30T03:44:07;20.19;52.16
75964;DHT22;65820;44.726;37.764;2023-01-30T03:45:09;20.18;51.99
75964;DHT22;65820;44.726;37.764;2023-01-30T03:46:11;20.19;53.07
75964;DHT22;65820;44.726;37.764;2023-01-30T03:47:13;20.18;53.40
75964;DHT22;65820;44.726;37.764;2023-01-30T03:48:14;20.18;52.49
75964;DHT22;65820;44.726;37.764;2023-01-30T03:49:16;20.17;52.55
75964;DHT22;65820;44.726;37.764;2023-01-30T03:50:18;20.18;52.81
75964;DHT22;65820;44.726;37.764;2023-01-30T03:51:21;20.18;52.84
75964;DHT22;65820;44.726;37.764;2023-01-30T03:52:22;20.20;52.94
75964;DHT22;65820;44.726;37.764;2023-01-30T03:53:24;20.22;53.24
75964;DHT22;65820;44.726;37.764;2023-01-30T03:54:25;20.24;53.70
75964;DHT22;65820;44.726;37.764;2023-01-30T03:55:28;20.26;53.94
75964;DHT22;65820;44.726;37.764;2023-01-30T03:56:29;20.28;54.01
75964;DHT22;65820;44.726;37.764;2023-01-30T03:57:31;20.28;54.20
75964;DHT22;65820;44.726;37.764;2023-01-30T03:58:33;20.30;54.23
75964;DHT22;65820;44.726;37.764;2023-01-30T03:59:47;20.32;54.28
75964;DHT22;65820;44.726;37.764;2023-01-30T04:00:50;20.33;54.51
75964;DHT22;65820;44.726;37.764;2023-01-30T04:01:51;20.34;54.31
75964;DHT22;65820;44.726;37.764;2023-01-30T04:02:53;20.35;53.99
75964;DHT22;65820;44.726;37.764;2023-01-30T04:03:55;20.35;53.75
75964;DHT22;65820;44.726;37.764;2023-01-30T04:04:56;20.36;53.25
75964;DHT22;65820;44.726;37.764;2023-01-30T04:05:57;20.37;53.83
75964;DHT22;65820;44.726;37.764;2023-01-30T04:06:59;20.39;54.09
75964;DHT22;65820;44.726;37.764;2023-01-30T04:08:01;20.41;54.09
75964;DHT22;65820;44.726;37.764;2023-01-30T04:09:03;20.42;54.13
75964;DHT22;65820;44.726;37.764;2023-01-30T04:10:15;20.43;54.18
75964;DHT22;65820;44.726;37.764;2023-01-30T04:11:19;20.46;54.16
75964;DHT22;65820;44.726;37.764;2023-01-30T04:12:20;20.47;54.26
75964;DHT22;65820;44.726;37.764;2023-01-30T04:13:28;20.48;54.15
75964;DHT22;65820;44.726;37.764;2023-01-30T04:14:29;20.47;54.54
75964;DHT22;65820;44.726;37.764;2023-01-30T04:16:19;20.49;53.91
75964;DHT22;65820;44.726;37.764;2023-01-30T04:17:44;20.49;53.83
75964;DHT22;65820;44.726;37.764;2023-01-30T04:19:03;20.50;53.94
75964;DHT22;65820;44.726;37.764;2023-01-30T04:20:07;20.50;53.76
75964;DHT22;65820;44.726;37.764;2023-01-30T04:21:11;20.53;53.75
75964;DHT22;65820;44.726;37.764;2023-01-30T04:22:14;20.53;53.79
75964;DHT22;65820;44.726;37.764;2023-01-30T04:23:15;20.54;53.80
75964;DHT22;65820;44.726;37.764;2023-01-30T04:24:17;20.55;53.74
75964;DHT22;65820;44.726;37.764;2023-01-30T04:25:19;20.56;53.72
75964;DHT22;65820;44.726;37.764;2023-01-30T04:26:21;20.56;53.69
75964;DHT22;65820;44.726;37.764;2023-01-30T04:27:22;20.57;54.21
75964;DHT22;65820;44.726;37.764;2023-01-30T04:28:45;20.57;53.71
75964;DHT22;65820;44.726;37.764;2023-01-30T04:29:47;20.57;53.65
75964;DHT22;65820;44.726;37.764;2023-01-30T04:30:51;20.57;53.46
75964;DHT22;65820;44.726;37.764;2023-01-30T04:32:13;20.58;53.36
75964;DHT22;65820;44.726;37.764;2023-01-30T04:33:14;20.58;53.43
75964;DHT22;65820;44.726;37.764;2023-01-30T04:34:16;20.58;53.78
75964;DHT22;65820;44.726;37.764;2023-01-30T04:35:17;20.59;53.38
75964;DHT22;65820;44.726;37.764;2023-01-30T04:36:18;20.59;53.30
75964;DHT22;65820;44.726;37.764;2023-01-30T04:37:20;20.58;53.37
75964;DHT22;65820;44.726;37.764;2023-01-30T04:38:25;20.60;53.33
75964;DHT22;65820;44.726;37.764;2023-01-30T04:39:28;20.60;53.39
75964;DHT22;65820;44.726;37.764;2023-01-30T04:40:29;20.58;53.16
75964;DHT22;65820;44.726;37.764;2023-01-30T04:41:31;20.60;53.05
75964;DHT22;65820;44.726;37.764;2023-01-30T04:42:35;20.60;53.24
75964;DHT22;65820;44.726;37.764;2023-01-30T04:43:56;20.62;53.09
75964;DHT22;65820;44.726;37.764;2023-01-30T04:45:13;20.60;53.13
75964;DHT22;65820;44.726;37.764;2023-01-30T04:46:14;20.60;52.94
75964;DHT22;65820;44.726;37.764;2023-01-30T04:47:16;20.61;52.96
75964;DHT22;65820;44.726;37.764;2023-01-30T04:48:19;20.61;52.95
75964;DHT22;65820;44.726;37.764;2023-01-30T04:49:21;20.61;52.94
75964;DHT22;65820;44.726;37.764;2023-01-30T04:50:23;20.61;52.86
75964;DHT22;65820;44.726;37.764;2023-01-30T04:51:28;20.61;52.93
75964;DHT22;65820;44.726;37.764;2023-01-30T04:52:31;20.60;52.98
75964;DHT22;65820;44.726;37.764;2023-01-30T04:53:32;20.60;52.82
75964;DHT22;65820;44.726;37.764;2023-01-30T04:54:34;20.61;52.82
75964;DHT22;65820;44.726;37.764;2023-01-30T04:55:36;20.61;52.84
75964;DHT22;65820;44.726;37.764;2023-01-30T04:56:37;20.60;52.72
75964;DHT22;65820;44.726;37.764;2023-01-30T04:57:40;20.63;53.18
75964;DHT22;65820;44.726;37.764;2023-01-30T04:58:41;20.61;52.65
75964;DHT22;65820;44.726;37.764;2023-01-30T04:59:43;20.62;52.62
75964;DHT22;65820;44.726;37.764;2023-01-30T05:00:48;20.63;52.69
75964;DHT22;65820;44.726;37.764;2023-01-30T05:01:49;20.62;52.70
75964;DHT22;65820;44.726;37.764;2023-01-30T05:02:51;20.61;52.56
75964;DHT22;65820;44.726;37.764;2023-01-30T05:03:53;20.63;52.60
75964;DHT22;65820;44.726;37.764;2023-01-30T05:04:54;20.64;52.61
75964;DHT22;65820;44.726;37.764;2023-01-30T05:05:56;20.63;52.54
75964;DHT22;65820;44.726;37.764;2023-01-30T05:06:57;20.63;52.53
75964;DHT22;65820;44.726;37.764;2023-01-30T05:08:00;20.63;52.49
75964;DHT22;65820;44.726;37.764;2023-01-30T05:09:03;20.64;52.65
75964;DHT22;65820;44.726;37.764;2023-01-30T05:10:05;20.63;52.52
75964;DHT22;65820;44.726;37.764;2023-01-30T05:11:06;20.63;52.49
75964;DHT22;65820;44.726;37.764;2023-01-30T05:12:07;20.63;52.42
75964;DHT22;65820;44.726;37.764;2023-01-30T05:13:09;20.64;52.45
75964;DHT22;65820;44.726;37.764;2023-01-30T05:14:10;20.64;52.37
75964;DHT22;65820;44.726;37.764;2023-01-30T05:15:12;20.63;52.43
75964;DHT22;65820;44.726;37.764;2023-01-30T05:16:14;20.64;52.41
75964;DHT22;65820;44.726;37.764;2023-01-30T05:17:16;20.63;52.36
75964;DHT22;65820;44.726;37.764;2023-01-30T05:18:17;20.64;52.51
75964;DHT22;65820;44.726;37.764;2023-01-30T05:19:19;20.64;52.51
75964;DHT22;65820;44.726;37.764;2023-01-30T05:20:20;20.64;52.30
75964;DHT22;65820;44.726;37.764;2023-01-30T05:21:24;20.65;52.30
75964;DHT22;65820;44.726;37.764;2023-01-30T05:22:26;20.65;52.28
75964;DHT22;65820;44.726;37.764;2023-01-30T05:23:27;20.63;52.36
75964;DHT22;65820;44.726;37.764;2023-01-30T05:24:29;20.64;52.22
75964;DHT22;65820;44.726;37.764;2023-01-30T05:25:30;20.64;52.28
75964;DHT22;65820;44.726;37.764;2023-01-30T05:26:31;20.65;52.16
75964;DHT22;65820;44.726;37.764;2023-01-30T05:27:33;20.65;52.22
75964;DHT22;65820;44.726;37.764;2023-01-30T05:28:34;20.64;52.16
75964;DHT22;65820;44.726;37.764;2023-01-30T05:29:36;20.64;52.14
75964;DHT22;65820;44.726;37.764;2023-01-30T05:30:37;20.64;52.10
75964;DHT22;65820;44.726;37.764;2023-01-30T05:31:38;20.64;52.07
75964;DHT22;65820;44.726;37.764;2023-01-30T05:32:40;20.64;52.04
75964;DHT22;65820;44.726;37.764;2023-01-30T05:33:41;20.65;52.10
75964;DHT22;65820;44.726;37.764;2023-01-30T05:34:43;20.65;52.11
75964;DHT22;65820;44.726;37.764;2023-01-30T05:35:48;20.65;52.11
75964;DHT22;65820;44.726;37.764;2023-01-30T05:36:50;20.65;52.51
75964;DHT22;65820;44.726;37.764;2023-01-30T05:37:51;20.65;52.08
75964;DHT22;65820;44.726;37.764;2023-01-30T05:38:52;20.64;52.08
75964;DHT22;65820;44.726;37.764;2023-01-30T05:39:54;20.64;52.17
75964;DHT22;65820;44.726;37.764;2023-01-30T05:41:03;20.65;52.10
75964;DHT22;65820;44.726;37.764;2023-01-30T05:42:08;20.64;52.03
75964;DHT22;65820;44.726;37.764;2023-01-30T05:43:09;20.65;52.09
75964;DHT22;65820;44.726;37.764;2023-01-30T05:44:11;20.64;52.03
75964;DHT22;65820;44.726;37.764;2023-01-30T05:45:12;20.66;52.00
75964;DHT22;65820;44.726;37.764;2023-01-30T05:46:13;20.64;51.96
75964;DHT22;65820;44.726;37.764;2023-01-30T05:47:15;20.65;51.92
75964;DHT22;65820;44.726;37.764;2023-01-30T05:48:19;20.66;51.92
75964;DHT22;65820;44.726;37.764;2023-01-30T05:49:21;20.65;52.04
75964;DHT22;65820;44.726;37.764;2023-01-30T05:50:22;20.65;52.24
75964;DHT22;65820;44.726;37.764;2023-01-30T05:51:25;20.65;52.04
75964;DHT22;65820;44.726;37.764;2023-01-30T05:52:26;20.64;51.91
75964;DHT22;65820;44.726;37.764;2023-01-30T05:53:30;20.63;51.89
75964;DHT22;65820;44.726;37.764;2023-01-30T05:54:34;20.65;51.89
75964;DHT22;65820;44.726;37.764;2023-01-30T05:55:35;20.64;51.85
75964;DHT22;65820;44.726;37.764;2023-01-30T05:56:37;20.64;51.93
75964;DHT22;65820;44.726;37.764;2023-01-30T05:57:38;20.63;52.00
75964;DHT22;65820;44.726;37.764;2023-01-30T05:58:39;20.64;51.88
75964;DHT22;65820;44.726;37.764;2023-01-30T05:59:41;20.62;51.93
75964;DHT22;65820;44.726;37.764;2023-01-30T06:00:42;20.63;51.86
75964;DHT22;65820;44.726;37.764;2023-01-30T06:01:46;20.64;51.91
75964;DHT22;65820;44.726;37.764;2023-01-30T06:02:50;20.63;51.90
75964;DHT22;65820;44.726;37.764;2023-01-30T06:03:52;20.64;51.85
75964;DHT22;65820;44.726;37.764;2023-01-30T06:04:53;20.63;51.92
75964;DHT22;65820;44.726;37.764;2023-01-30T06:05:55;20.64;51.88
75964;DHT22;65820;44.726;37.764;2023-01-30T06:06:56;20.64;51.75
75964;DHT22;65820;44.726;37.764;2023-01-30T06:07:58;20.64;51.82
75964;DHT22;65820;44.726;37.764;2023-01-30T06:08:59;20.65;51.63
75964;DHT22;65820;44.726;37.764;2023-01-30T06:10:01;20.65;51.84
75964;DHT22;65820;44.726;37.764;2023-01-30T06:11:08;20.65;51.76
75964;DHT22;65820;44.726;37.764;2023-01-30T06:12:09;20.64;51.69
75964;DHT22;65820;44.726;37.764;2023-01-30T06:13:11;20.64;51.66
75964;DHT22;65820;44.726;37.764;2023-01-30T06:14:12;20.64;51.68
75964;DHT22;65820;44.726;37.764;2023-01-30T06:16:02;20.65;51.69
75964;DHT22;65820;44.726;37.764;2023-01-30T06:17:03;20.66;51.66
75964;DHT22;65820;44.726;37.764;2023-01-30T06:18:04;20.66;51.61
75964;DHT22;65820;44.726;37.764;2023-01-30T06:19:07;20.65;51.66
75964;DHT22;65820;44.726;37.764;2023-01-30T06:20:10;20.66;51.65
75964;DHT22;65820;44.726;37.764;2023-01-30T06:21:12;20.66;51.59
75964;DHT22;65820;44.726;37.764;2023-01-30T06:22:14;20.66;51.53
75964;DHT22;65820;44.726;37.764;2023-01-30T06:23:16;20.68;51.51
75964;DHT22;65820;44.726;37.764;2023-01-30T06:24:17;20.66;51.46
75964;DHT22;65820;44.726;37.764;2023-01-30T06:25:18;20.69;51.46
75964;DHT22;65820;44.726;37.764;2023-01-30T06:26:20;20.68;51.49
75964;DHT22;65820;44.726;37.764;2023-01-30T06:27:21;20.70;51.64
75964;DHT22;65820;44.726;37.764;2023-01-30T06:28:24;20.68;51.59
75964;DHT22;65820;44.726;37.764;2023-01-30T06:29:25;20.69;51.59
75964;DHT22;65820;44.726;37.764;2023-01-30T06:30:27;20.69;51.48
75964;DHT22;65820;44.726;37.764;2023-01-30T06:31:28;20.70;51.57
75964;DHT22;65820;44.726;37.764;2023-01-30T06:32:29;20.70;51.85
75964;DHT22;65820;44.726;37.764;2023-01-30T06:33:31;20.68;51.61
75964;DHT22;65820;44.726;37.764;2023-01-30T06:34:32;20.70;51.56
75964;DHT22;65820;44.726;37.764;2023-01-30T06:35:36;20.69;51.53
75964;DHT22;65820;44.726;37.764;2023-01-30T06:36:38;20.69;51.50
75964;DHT22;65820;44.726;37.764;2023-01-30T06:37:43;20.69;51.68
75964;DHT22;65820;44.726;37.764;2023-01-30T06:38:47;20.69;51.55
75964;DHT22;65820;44.726;37.764;2023-01-30T06:39:48;20.68;51.53
75964;DHT22;65820;44.726;37.764;2023-01-30T06:40:50;20.69;51.45
75964;DHT22;65820;44.726;37.764;2023-01-30T06:41:51;20.68;51.37
75964;DHT22;65820;44.726;37.764;2023-01-30T06:42:52;20.70;51.27
75964;DHT22;65820;44.726;37.764;2023-01-30T06:43:53;20.68;51.41
75964;DHT22;65820;44.726;37.764;2023-01-30T06:44:55;20.68;51.34
75964;DHT22;65820;44.726;37.764;2023-01-30T06:45:59;20.68;51.30
75964;DHT22;65820;44.726;37.764;2023-01-30T06:47:01;20.69;51.32
75964;DHT22;65820;44.726;37.764;2023-01-30T06:48:02;20.69;51.29
75964;DHT22;65820;44.726;37.764;2023-01-30T06:49:06;20.68;51.27
75964;DHT22;65820;44.726;37.764;2023-01-30T06:50:08;20.68;51.29
75964;DHT22;65820;44.726;37.764;2023-01-30T06:51:09;20.68;51.54
75964;DHT22;65820;44.726;37.764;2023-01-30T06:52:10;20.66;51.50
75964;DHT22;65820;44.726;37.764;2023-01-30T06:53:12;20.68;51.27
75964;DHT22;65820;44.726;37.764;2023-01-30T06:54:14;20.66;51.14
75964;DHT22;65820;44.726;37.764;2023-01-30T06:55:17;20.66;51.10
75964;DHT22;65820;44.726;37.764;2023-01-30T06:56:18;20.68;51.01
75964;DHT22;65820;44.726;37.764;2023-01-30T06:57:19;20.68;51.00
75964;DHT22;65820;44.726;37.764;2023-01-30T06:58:21;20.68;51.46
75964;DHT22;65820;44.726;37.764;2023-01-30T06:59:25;20.68;51.04
75964;DHT22;65820;44.726;37.764;2023-01-30T07:00:26;20.68;51.02
75964;DHT22;65820;44.726;37.764;2023-01-30T07:01:28;20.66;51.05
75964;DHT22;65820;44.726;37.764;2023-01-30T07:02:29;20.66;51.01
75964;DHT22;65820;44.726;37.764;2023-01-30T07:03:34;20.68;51.07